Time;durP1;ratioP1;P1;durP2;ratioP2;P2;SDS_P1;SDS_P2;PMS_P1;PMS_P2;Temp;Humidity;BMP_temperature;BMP_pressure;BME280_temperature;BME280_humidity;BME280_pressure;Samples;Min_cycle;Max_cycle;Signal;HPM_P1;HPM_P2
2022/08/07 00:01:13;;;;;;;54.83;52.15;;;;;;;24.13;34.41;102563.81;4880074;29;20416;-70
2022/08/07 00:03:39;;;;;;;54.35;51.55;;;;;;;24.10;34.38;102567.16;4879850;29;20073;-68
2022/08/07 00:06:04;;;;;;;54.40;51.50;;;;;;;24.08;34.17;102557.53;4880028;29;20048;-73
2022/08/07 00:08:30;;;;;;;53.00;50.40;;;;;;;24.05;34.44;102558.94;4894881;29;20037;-70
2022/08/07 00:10:56;;;;;;;54.03;51.00;;;;;;;24.03;34.45;102552.88;4894484;29;20037;-69
2022/08/07 00:13:22;;;;;;;54.40;51.72;;;;;;;24.01;34.16;102555.09;4894357;29;20493;-68
2022/08/07 00:15:49;;;;;;;52.50;49.80;;;;;;;23.98;34.46;102559.25;4878639;29;20464;-71
2022/08/07 00:18:17;;;;;;;53.15;50.47;;;;;;;23.95;34.48;102548.00;4879565;29;20525;-69
2022/08/07 00:20:43;;;;;;;53.08;50.28;;;;;;;23.93;34.51;102550.22;4879877;29;20040;-69
2022/08/07 00:23:08;;;;;;;52.60;50.08;;;;;;;23.90;34.15;102543.34;4894099;29;20390;-71
2022/08/07 00:25:35;;;;;;;51.97;49.33;;;;;;;23.88;34.40;102540.03;4879754;29;20048;-69
2022/08/07 00:28:01;;;;;;;52.92;50.17;;;;;;;23.86;34.45;102544.19;4878916;29;20102;-69
2022/08/07 00:30:27;;;;;;;55.03;52.33;;;;;;;23.82;34.69;102538.44;4879517;29;20466;-70
2022/08/07 00:32:53;;;;;;;52.47;49.22;;;;;;;23.80;34.49;102543.44;4878477;29;20072;-70
2022/08/07 00:35:19;;;;;;;52.45;49.75;;;;;;;23.77;34.93;102532.97;4879531;29;20489;-69
2022/08/07 00:37:45;;;;;;;52.15;49.55;;;;;;;23.74;34.78;102530.78;4879829;29;20040;-70
2022/08/07 00:40:11;;;;;;;52.92;50.28;;;;;;;23.72;34.52;102533.84;4879476;29;20029;-71
2022/08/07 00:42:37;;;;;;;53.03;50.42;;;;;;;23.68;34.84;102527.19;4879299;29;20438;-70
2022/08/07 00:45:04;;;;;;;53.33;49.75;;;;;;;23.67;35.00;102531.09;4879555;29;20037;-70
2022/08/07 00:47:30;;;;;;;52.63;49.75;;;;;;;23.63;34.79;102527.25;4879707;29;20029;-70
2022/08/07 00:49:55;;;;;;;51.72;49.05;;;;;;;23.61;34.55;102523.97;4878405;29;20118;-70
2022/08/07 00:52:21;;;;;;;53.08;50.38;;;;;;;23.58;34.71;102532.81;4879451;29;20033;-70
2022/08/07 00:54:47;;;;;;;51.40;48.90;;;;;;;23.57;34.73;102527.59;4879862;29;20052;-70
2022/08/07 00:57:13;;;;;;;53.13;49.92;;;;;;;23.54;34.80;102526.22;4879185;29;20041;-70
2022/08/07 00:59:38;;;;;;;52.17;49.30;;;;;;;23.51;34.75;102524.03;4896835;29;20089;-69
2022/08/07 01:02:05;;;;;;;51.95;49.40;;;;;;;23.49;35.13;102526.28;4883028;29;20379;-70
2022/08/07 01:04:31;;;;;;;52.10;49.50;;;;;;;23.46;35.23;102518.53;4882871;29;20028;-70
2022/08/07 01:06:56;;;;;;;51.00;48.40;;;;;;;23.43;35.08;102519.94;4882306;29;20045;-69
2022/08/07 01:09:22;;;;;;;50.85;47.95;;;;;;;23.41;35.17;102516.69;4883120;29;20033;-70
2022/08/07 01:11:50;;;;;;;50.13;47.63;;;;;;;23.39;34.95;102513.38;4883056;29;20036;-70
2022/08/07 01:14:15;;;;;;;51.55;48.80;;;;;;;23.36;35.30;102513.09;4882611;29;20037;-69
2022/08/07 01:16:41;;;;;;;51.08;48.38;;;;;;;23.34;34.81;102516.16;4882792;29;20037;-69
2022/08/07 01:19:08;;;;;;;52.05;49.35;;;;;;;23.30;34.92;102504.06;4883054;29;20036;-71
2022/08/07 01:21:34;;;;;;;51.10;48.40;;;;;;;23.27;34.94;102510.97;4883083;29;20157;-69
2022/08/07 01:24:00;;;;;;;50.05;47.58;;;;;;;23.24;35.10;102495.00;4882991;29;20077;-68
2022/08/07 01:26:26;;;;;;;50.65;48.05;;;;;;;23.23;35.46;102504.34;4881615;29;20109;-70
2022/08/07 01:28:53;;;;;;;50.58;48.08;;;;;;;23.20;35.37;102502.19;4882945;29;20060;-69
2022/08/07 01:31:20;;;;;;;51.25;48.67;;;;;;;23.18;35.11;102498.88;4883140;29;20133;-69
2022/08/07 01:33:46;;;;;;;49.38;46.95;;;;;;;23.15;35.07;102499.47;4881347;29;20035;-69
2022/08/07 01:36:12;;;;;;;49.50;47.00;;;;;;;23.13;35.20;102498.91;4882600;29;20117;-69
2022/08/07 01:38:39;;;;;;;50.92;48.33;;;;;;;23.10;35.50;102499.50;4897340;29;20047;-70
2022/08/07 01:41:06;;;;;;;52.60;49.67;;;;;;;23.08;35.30;102501.69;4882597;29;20097;-71
2022/08/07 01:43:32;;;;;;;51.08;48.55;;;;;;;23.06;35.36;102498.44;4883163;29;20060;-70
2022/08/07 01:45:58;;;;;;;50.63;48.10;;;;;;;23.03;35.41;102493.47;4882598;29;20037;-69
2022/08/07 01:48:25;;;;;;;51.05;48.33;;;;;;;23.00;35.20;102494.84;4882425;29;20044;-70
2022/08/07 01:51:00;;;;;;;49.75;47.28;;;;;;;22.99;35.51;102492.41;4882796;29;20033;-68
2022/08/07 01:53:28;;;;;;;50.55;48.05;;;;;;;22.95;35.53;102481.06;4882621;29;20406;-70
2022/08/07 01:56:09;;;;;;;48.77;46.37;;;;;;;22.93;35.88;102488.81;4882532;29;20049;-70
2022/08/07 01:58:40;;;;;;;50.60;48.03;;;;;;;22.90;35.47;102484.69;4882261;29;20037;-70
2022/08/07 02:01:20;;;;;;;48.58;46.08;;;;;;;22.87;35.58;102484.44;4882679;29;20036;-68
2022/08/07 02:03:52;;;;;;;48.00;45.35;;;;;;;22.84;35.99;102485.81;4882042;29;20040;-70
2022/08/07 02:06:20;;;;;;;47.50;45.20;;;;;;;22.82;35.71;102478.94;4882952;29;20462;-70
2022/08/07 02:08:47;;;;;;;49.28;46.80;;;;;;;22.80;35.97;102481.16;4882587;29;20037;-69
2022/08/07 02:11:13;;;;;;;48.70;45.75;;;;;;;22.77;35.90;102485.31;4881368;29;20025;-69
2022/08/07 02:13:41;;;;;;;48.70;46.13;;;;;;;22.74;35.90;102472.09;4896196;29;20040;-71
2022/08/07 02:16:08;;;;;;;48.22;45.72;;;;;;;22.72;35.66;102488.09;4882065;29;20036;-70
2022/08/07 02:18:37;;;;;;;47.93;45.40;;;;;;;22.71;36.01;102485.63;4881829;29;20063;-70
2022/08/07 02:21:06;;;;;;;48.30;45.70;;;;;;;22.68;35.92;102487.84;4880659;29;20390;-69
2022/08/07 02:23:38;;;;;;;49.08;46.58;;;;;;;22.66;36.12;102486.47;4881765;29;20181;-69
2022/08/07 02:26:05;;;;;;;47.63;45.22;;;;;;;22.63;35.91;102479.59;4881845;29;20033;-70
2022/08/07 02:28:32;;;;;;;49.50;46.90;;;;;;;22.61;35.83;102478.25;4881694;29;20041;-71
2022/08/07 02:31:01;;;;;;;47.15;44.83;;;;;;;22.59;36.20;102477.69;4881697;29;20044;-70
2022/08/07 02:33:27;;;;;;;47.50;45.13;;;;;;;22.57;35.85;102488.97;4881612;29;20037;-70
2022/08/07 02:35:54;;;;;;;47.63;45.00;;;;;;;22.54;36.03;102488.72;4881264;29;20079;-69
2022/08/07 02:38:24;;;;;;;50.03;47.42;;;;;;;22.53;35.88;102476.03;4881807;29;20036;-71
2022/08/07 02:40:49;;;;;;;47.55;45.03;;;;;;;22.51;36.30;102470.03;4881512;29;20039;-70
2022/08/07 02:43:15;;;;;;;48.75;46.15;;;;;;;22.47;36.11;102472.50;4881482;29;20397;-70
2022/08/07 02:45:43;;;;;;;48.10;45.58;;;;;;;22.44;36.57;102471.13;4881146;29;20406;-70
2022/08/07 02:48:09;;;;;;;46.87;44.47;;;;;;;22.43;35.92;102468.66;4882058;29;20025;-71
2022/08/07 02:50:38;;;;;;;48.15;45.65;;;;;;;22.40;36.43;102469.22;4881698;29;20277;-69
2022/08/07 02:53:10;;;;;;;47.22;44.83;;;;;;;22.38;36.34;102457.69;4881015;29;20032;-70
2022/08/07 02:55:38;;;;;;;51.05;48.35;;;;;;;22.36;36.65;102463.47;4881163;29;20053;-70
2022/08/07 02:58:09;;;;;;;47.25;44.88;;;;;;;22.35;36.59;102463.72;4879996;29;20080;-69
2022/08/07 03:00:37;;;;;;;49.05;46.53;;;;;;;22.31;36.35;102459.91;4881358;29;20124;-70
2022/08/07 03:03:06;;;;;;;47.67;45.28;;;;;;;22.29;36.11;102459.34;4881174;29;20101;-70
2022/08/07 03:05:32;;;;;;;49.72;46.80;;;;;;;22.27;36.38;102462.38;4880948;29;20059;-69
2022/08/07 03:07:58;;;;;;;47.05;44.55;;;;;;;22.25;36.25;102468.19;4879562;29;20470;-70
2022/08/07 03:10:24;;;;;;;47.50;45.10;;;;;;;22.23;36.57;102466.81;4880986;29;20040;-69
2022/08/07 03:12:51;;;;;;;47.08;44.60;;;;;;;22.21;36.57;102471.75;4879884;29;20037;-71
2022/08/07 03:15:18;;;;;;;48.20;45.63;;;;;;;22.19;36.35;102462.94;4880742;29;20354;-69
2022/08/07 03:17:43;;;;;;;47.55;44.80;;;;;;;22.17;36.74;102468.69;4895175;29;20037;-71
2022/08/07 03:20:10;;;;;;;46.22;43.83;;;;;;;22.15;36.44;102467.31;4880550;29;20486;-70
2022/08/07 03:22:37;;;;;;;46.97;44.33;;;;;;;22.13;36.74;102472.31;4879765;29;20049;-69
2022/08/07 03:25:03;;;;;;;46.75;44.38;;;;;;;22.09;36.63;102469.28;4880774;29;20040;-71
2022/08/07 03:27:29;;;;;;;48.00;44.95;;;;;;;22.08;36.66;102461.31;4894962;29;20045;-73
2022/08/07 03:29:55;;;;;;;47.28;44.75;;;;;;;22.06;36.78;102461.59;4880526;29;20052;-69
2022/08/07 03:32:24;;;;;;;47.80;45.15;;;;;;;22.04;36.73;102456.34;4880233;29;20044;-69
2022/08/07 03:34:53;;;;;;;47.53;44.97;;;;;;;22.01;37.23;102456.91;4880299;29;20025;-69
2022/08/07 03:37:20;;;;;;;;;;;;;;;21.99;36.28;102459.09;4880842;29;20490;-69
2022/08/07 03:39:47;;;;;;;46.35;43.85;;;;;;;21.96;36.91;102456.09;4880427;29;19915;-68
2022/08/07 03:42:14;;;;;;;45.85;43.13;;;;;;;21.93;36.61;102457.47;4880138;29;20040;-67
2022/08/07 03:44:41;;;;;;;46.10;43.50;;;;;;;21.91;36.86;102456.13;4880339;29;20072;-72
2022/08/07 03:47:06;;;;;;;46.00;43.38;;;;;;;21.89;36.73;102452.81;4895180;29;20135;-70
2022/08/07 03:49:33;;;;;;;46.47;44.03;;;;;;;21.87;36.76;102455.81;4880439;29;20500;-73
2022/08/07 03:51:59;;;;;;;45.72;43.25;;;;;;;21.86;36.92;102458.88;4879086;29;20040;-70
2022/08/07 03:54:25;;;;;;;46.80;44.20;;;;;;;21.83;37.27;102458.31;4894486;29;20398;-70
2022/08/07 03:56:52;;;;;;;47.40;44.78;;;;;;;21.81;36.90;102466.03;4880116;29;20483;-69
2022/08/07 03:59:18;;;;;;;47.22;44.28;;;;;;;21.79;37.10;102467.41;4879903;29;20100;-70
2022/08/07 04:01:45;;;;;;;47.13;44.53;;;;;;;21.77;37.25;102466.84;4879749;29;20041;-71
2022/08/07 04:04:10;;;;;;;46.33;43.83;;;;;;;21.75;36.74;102469.06;4880273;29;20089;-68
2022/08/07 04:06:39;;;;;;;46.47;43.75;;;;;;;21.73;37.31;102468.50;4878696;29;20033;-70
2022/08/07 04:09:05;;;;;;;;;;;;;;;21.71;37.04;102474.28;4879278;29;20466;-68
2022/08/07 04:11:31;;;;;;;46.75;44.25;;;;;;;21.68;37.17;102465.78;4894500;29;19916;-70
2022/08/07 04:13:58;;;;;;;46.55;43.83;;;;;;;21.67;36.90;102472.34;4879541;29;20108;-69
2022/08/07 04:16:24;;;;;;;48.05;45.45;;;;;;;21.65;37.17;102474.56;4878814;29;20036;-70
2022/08/07 04:18:49;;;;;;;47.88;45.08;;;;;;;21.62;36.91;102478.69;4880260;29;20044;-70
2022/08/07 04:21:15;;;;;;;46.88;44.25;;;;;;;21.60;37.10;102484.47;4879543;29;20097;-69
2022/08/07 04:23:41;;;;;;;48.75;45.63;;;;;;;21.59;37.12;102488.28;4879790;29;20093;-71
2022/08/07 04:26:06;;;;;;;47.20;44.38;;;;;;;21.58;37.50;102489.41;4878388;29;20422;-70
2022/08/07 04:28:32;;;;;;;46.97;44.08;;;;;;;21.55;37.13;102484.47;4893772;29;20124;-70
2022/08/07 04:30:59;;;;;;;47.15;44.47;;;;;;;21.54;37.48;102487.47;4879931;29;20041;-69
2022/08/07 04:33:25;;;;;;;47.15;44.47;;;;;;;21.52;37.68;102481.44;4879015;29;20084;-70
2022/08/07 04:35:51;;;;;;;47.88;44.97;;;;;;;21.49;37.63;102485.53;4879823;29;20374;-69
2022/08/07 04:38:17;;;;;;;47.97;45.20;;;;;;;21.47;37.43;102485.03;4880168;29;20057;-69
2022/08/07 04:40:44;;;;;;;46.95;44.17;;;;;;;21.46;37.75;102483.34;4894195;29;20041;-72
2022/08/07 04:43:10;;;;;;;45.95;43.13;;;;;;;21.44;37.49;102481.97;4878468;29;20072;-68
2022/08/07 04:46:05;;;;;;;48.65;45.88;;;;;;;21.42;37.45;102485.03;4878356;29;20049;-69
2022/08/07 04:48:40;;;;;;;46.15;43.65;;;;;;;21.41;37.59;102488.84;4893826;29;20067;-68
2022/08/07 04:51:26;;;;;;;46.08;43.42;;;;;;;21.38;37.62;102486.63;4879305;29;20402;-70
2022/08/07 04:53:56;;;;;;;48.95;46.00;;;;;;;21.35;37.97;102490.75;4879731;29;20053;-71
2022/08/07 04:56:46;;;;;;;46.33;43.72;;;;;;;21.35;37.97;102492.66;4880004;29;20037;-75
2022/08/07 04:59:33;;;;;;;44.55;42.05;;;;;;;21.33;37.68;102498.44;4879061;29;20478;-70
2022/08/07 05:02:12;;;;;;;45.17;42.30;;;;;;;21.32;38.01;102498.72;4878766;29;20119;-71
2022/08/07 05:04:41;;;;;;;44.70;42.30;;;;;;;21.29;38.00;102500.09;4879381;29;20037;-71
2022/08/07 05:07:15;;;;;;;;;;;;;;;21.28;37.37;102494.84;4881050;29;20068;-75
2022/08/07 05:09:59;;;;;;;44.55;42.05;;;;;;;21.25;37.88;102500.91;4894723;29;19918;-76
2022/08/07 05:12:34;;;;;;;43.58;41.28;;;;;;;21.23;37.98;102501.16;4879947;29;20037;-72
2022/08/07 05:15:15;;;;;;;44.70;42.25;;;;;;;21.22;37.99;102505.03;4894238;29;20469;-73
2022/08/07 05:17:55;;;;;;;44.38;41.95;;;;;;;21.21;38.25;102502.53;4878796;29;20033;-73
2022/08/07 05:20:32;;;;;;;44.92;41.90;;;;;;;21.19;37.93;102511.03;4879143;29;20029;-70
2022/08/07 05:23:04;;;;;;;46.63;44.03;;;;;;;21.18;37.87;102510.22;4879737;29;20505;-71
2022/08/07 05:25:31;;;;;;;43.88;41.55;;;;;;;21.18;37.86;102512.97;4894022;29;20039;-70
2022/08/07 05:27:57;;;;;;;43.05;40.75;;;;;;;21.18;38.06;102503.91;4878202;29;20037;-71
2022/08/07 05:30:24;;;;;;;44.35;41.75;;;;;;;21.18;38.35;102506.66;4893944;29;20435;-69
2022/08/07 05:32:51;;;;;;;46.53;44.03;;;;;;;21.18;38.15;102510.22;4879325;29;20040;-68
2022/08/07 05:35:18;;;;;;;45.17;42.78;;;;;;;21.18;38.56;102504.72;4879400;29;20184;-72
2022/08/07 05:37:45;;;;;;;44.80;42.40;;;;;;;21.18;38.32;102512.97;4879287;29;20037;-72
2022/08/07 05:40:11;;;;;;;44.47;41.97;;;;;;;21.18;38.35;102506.66;4893639;29;20092;-73
2022/08/07 05:42:37;;;;;;;45.72;43.03;;;;;;;21.18;38.65;102509.41;4879224;29;20033;-73
2022/08/07 05:45:04;;;;;;;44.83;42.47;;;;;;;21.18;38.82;102506.66;4878245;29;20047;-70
2022/08/07 05:47:31;;;;;;;45.20;42.65;;;;;;;21.18;38.54;102509.41;4882531;29;20044;-69
2022/08/07 05:49:57;;;;;;;45.40;43.03;;;;;;;21.18;38.57;102506.66;4897341;29;20040;-70
2022/08/07 05:52:22;;;;;;;43.65;41.00;;;;;;;21.18;38.58;102506.66;4882788;29;20097;-73
2022/08/07 05:54:48;;;;;;;45.40;42.80;;;;;;;21.17;38.28;102507.75;4882211;29;20088;-70
2022/08/07 05:57:15;;;;;;;44.92;42.55;;;;;;;21.19;38.27;102513.78;4897384;29;20484;-68
2022/08/07 05:59:43;;;;;;;44.97;42.25;;;;;;;21.20;38.45;102515.44;4896686;29;20033;-70
2022/08/07 06:02:13;;;;;;;44.97;42.33;;;;;;;21.20;38.75;102518.19;4882376;29;20033;-69
2022/08/07 06:04:44;;;;;;;45.45;42.78;;;;;;;21.20;38.64;102520.94;4882604;29;20029;-68
2022/08/07 06:07:10;;;;;;;45.33;42.83;;;;;;;21.21;38.34;102510.78;4897000;29;20043;-68
2022/08/07 06:09:36;;;;;;;43.40;40.70;;;;;;;21.21;38.15;102513.53;4882360;29;20037;-70
2022/08/07 06:12:01;;;;;;;47.60;44.65;;;;;;;21.21;38.51;102522.59;4882234;29;20115;-71
2022/08/07 06:14:27;;;;;;;43.35;41.15;;;;;;;21.23;38.46;102527.81;4882092;29;20127;-70
2022/08/07 06:16:53;;;;;;;46.70;44.13;;;;;;;21.23;38.58;102522.34;4881966;29;20445;-69
2022/08/07 06:19:20;;;;;;;46.42;43.72;;;;;;;21.22;38.19;102527.00;4882003;29;20093;-68
2022/08/07 06:21:46;;;;;;;44.15;41.78;;;;;;;21.23;38.68;102517.66;4880531;29;20450;-71
2022/08/07 06:24:12;;;;;;;44.42;41.72;;;;;;;21.24;38.33;102519.28;4880574;29;20041;-69
2022/08/07 06:26:42;;;;;;;45.88;43.25;;;;;;;21.25;38.60;102523.72;4882352;29;20033;-70
2022/08/07 06:29:10;;;;;;;45.33;42.97;;;;;;;21.25;38.13;102520.97;4880333;29;20039;-72
2022/08/07 06:31:35;;;;;;;43.33;41.00;;;;;;;21.27;38.60;102524.28;4896217;29;20045;-69
2022/08/07 06:34:01;;;;;;;44.45;41.92;;;;;;;21.28;38.49;102520.41;4895846;29;20093;-68
2022/08/07 06:36:26;;;;;;;44.92;42.53;;;;;;;21.29;38.54;102510.25;4880460;29;20390;-68
2022/08/07 06:38:53;;;;;;;44.22;41.80;;;;;;;21.30;38.26;102509.97;4881777;29;20162;-67
2022/08/07 06:41:27;;;;;;;43.95;41.65;;;;;;;21.32;38.58;102506.97;4881518;29;20065;-69
2022/08/07 06:43:55;;;;;;;44.60;41.90;;;;;;;21.34;38.44;102516.59;4881956;29;20033;-69
2022/08/07 06:46:21;;;;;;;43.55;41.35;;;;;;;21.34;38.36;102508.34;4881649;29;20120;-75
2022/08/07 06:48:46;;;;;;;44.10;41.80;;;;;;;21.36;38.78;102508.06;4881825;29;20122;-70
2022/08/07 06:51:16;;;;;;;43.65;41.35;;;;;;;21.39;38.70;102497.38;4880335;29;20041;-70
2022/08/07 06:53:43;;;;;;;42.55;40.42;;;;;;;21.40;38.38;102500.97;4880399;29;20113;-69
2022/08/07 06:56:10;;;;;;;46.47;43.88;;;;;;;21.42;37.92;102501.50;4880399;29;20037;-71
2022/08/07 06:58:36;;;;;;;44.10;41.70;;;;;;;21.46;38.33;102505.34;4880447;29;20036;-71
2022/08/07 07:01:05;;;;;;;47.00;44.50;;;;;;;21.50;37.99;102509.22;4865292;29;20043;-69
2022/08/07 07:03:32;;;;;;;44.83;42.42;;;;;;;21.52;38.38;102507.03;4880206;29;20124;-70
2022/08/07 07:05:59;;;;;;;47.15;44.65;;;;;;;21.55;38.29;102500.97;4881009;29;20055;-71
2022/08/07 07:08:29;;;;;;;45.00;42.65;;;;;;;21.59;38.19;102502.06;4881232;29;20045;-71
2022/08/07 07:10:54;;;;;;;45.15;42.85;;;;;;;21.62;38.30;102503.47;4881126;29;20097;-69
2022/08/07 07:13:30;;;;;;;46.30;43.88;;;;;;;21.65;38.39;102502.06;4880707;29;20032;-73
2022/08/07 07:16:01;;;;;;;45.08;42.67;;;;;;;21.67;38.41;102497.09;4895373;29;20078;-71
2022/08/07 07:18:33;;;;;;;46.63;43.97;;;;;;;21.71;38.22;102500.97;4880756;29;20077;-72
2022/08/07 07:21:05;;;;;;;46.88;44.20;;;;;;;21.73;38.26;102504.28;4880536;29;20068;-71
2022/08/07 07:23:32;;;;;;;44.85;42.35;;;;;;;21.76;38.46;102507.28;4881079;29;20116;-71
2022/08/07 07:26:01;;;;;;;46.13;43.72;;;;;;;21.79;38.25;102503.97;4880930;29;20033;-71
2022/08/07 07:28:38;;;;;;;46.70;44.10;;;;;;;21.85;38.57;102499.31;4879695;29;20036;-70
2022/08/07 07:31:25;;;;;;;47.17;44.72;;;;;;;21.88;38.48;102495.19;4880731;29;20021;-69
2022/08/07 07:33:57;;;;;;;48.92;46.25;;;;;;;21.90;38.18;102499.31;4879916;29;20415;-70
2022/08/07 07:36:24;;;;;;;45.55;43.05;;;;;;;21.94;38.40;102489.38;4895703;29;20033;-68
2022/08/07 07:38:50;;;;;;;46.58;44.17;;;;;;;21.97;38.15;102491.59;4894944;29;20072;-67
2022/08/07 07:41:18;;;;;;;46.17;43.67;;;;;;;22.01;38.44;102492.69;4880655;29;20041;-70
2022/08/07 07:43:47;;;;;;;45.25;42.75;;;;;;;22.05;38.43;102495.72;4879250;29;20048;-73
2022/08/07 07:46:14;;;;;;;47.60;44.70;;;;;;;22.08;38.49;102494.34;4880175;29;20040;-70
2022/08/07 07:48:41;;;;;;;47.47;44.97;;;;;;;22.13;38.08;102486.06;4880576;29;20064;-70
2022/08/07 07:51:08;;;;;;;48.95;46.25;;;;;;;22.19;38.61;102487.69;4880056;29;20413;-74
2022/08/07 07:53:40;;;;;;;48.88;46.00;;;;;;;22.25;38.55;102489.34;4894532;29;20449;-69
2022/08/07 07:56:07;;;;;;;49.10;46.45;;;;;;;22.30;38.01;102497.63;4880419;29;20501;-69
2022/08/07 07:58:36;;;;;;;49.45;46.72;;;;;;;22.34;38.31;102486.88;4864638;29;20048;-71
2022/08/07 08:01:04;;;;;;;48.95;46.38;;;;;;;22.40;38.17;102494.84;4880060;29;20052;-72
2022/08/07 08:03:32;;;;;;;46.77;44.17;;;;;;;22.47;38.39;102494.53;4879896;29;20112;-74
2022/08/07 08:05:58;;;;;;;48.25;45.85;;;;;;;22.53;38.41;102498.94;4880066;29;20037;-69
2022/08/07 08:08:29;;;;;;;49.75;46.65;;;;;;;22.60;38.02;102499.44;4879397;29;20041;-70
2022/08/07 08:10:55;;;;;;;50.22;47.47;;;;;;;22.67;38.26;102501.88;4880191;29;20072;-72
2022/08/07 08:13:24;;;;;;;48.53;46.20;;;;;;;22.73;37.99;102503.53;4880216;29;20509;-70
2022/08/07 08:15:50;;;;;;;47.88;45.33;;;;;;;22.78;38.43;102506.25;4878323;29;20037;-70
2022/08/07 08:18:17;;;;;;;49.55;47.05;;;;;;;22.86;38.22;102500.16;4880345;29;20068;-72
2022/08/07 08:20:44;;;;;;;53.90;50.65;;;;;;;22.94;37.98;102490.47;4880094;29;20116;-71
2022/08/07 08:28:44;;;;;;;51.28;48.28;;;;;;;23.20;38.12;102490.34;4880044;29;20065;-77
2022/08/07 08:31:14;;;;;;;50.95;48.17;;;;;;;23.22;37.79;102488.94;4879885;29;20039;-75
2022/08/07 08:33:41;;;;;;;48.92;46.40;;;;;;;23.26;37.45;102492.78;4879693;29;20037;-71
2022/08/07 08:36:09;;;;;;;48.90;46.33;;;;;;;23.35;37.49;102504.00;4879268;29;20041;-70
2022/08/07 08:38:38;;;;;;;51.13;48.53;;;;;;;23.44;37.65;102501.50;4879998;29;20485;-70
2022/08/07 08:41:22;;;;;;;53.00;50.30;;;;;;;23.54;37.56;102496.72;4879600;29;20029;-70
2022/08/07 08:44:07;;;;;;;54.17;51.53;;;;;;;23.66;37.28;102496.34;4879557;29;20040;-70
2022/08/07 08:46:49;;;;;;;50.00;47.40;;;;;;;23.78;37.09;102492.41;4879523;29;20037;-71
2022/08/07 08:49:20;;;;;;;54.25;51.45;;;;;;;23.87;37.38;102497.00;4880039;29;20037;-70
2022/08/07 08:52:04;;;;;;;53.75;51.05;;;;;;;23.98;37.66;102492.19;4879973;29;20430;-71
2022/08/07 08:54:43;;;;;;;53.88;51.08;;;;;;;24.10;37.45;102489.06;4879775;29;20121;-71
2022/08/07 08:57:25;;;;;;;53.95;51.28;;;;;;;24.20;36.88;102483.44;4878457;29;20029;-70
2022/08/07 09:00:00;;;;;;;53.63;50.83;;;;;;;24.31;37.07;102479.41;4880037;29;20132;-69
2022/08/07 09:02:38;;;;;;;55.70;52.58;;;;;;;24.42;36.59;102474.63;4878123;29;20048;-69
2022/08/07 09:05:03;;;;;;;53.10;50.20;;;;;;;24.52;37.22;102481.97;4879411;29;20086;-70
2022/08/07 09:07:58;;;;;;;57.03;54.05;;;;;;;24.64;36.43;102478.78;4879377;29;20432;-70
2022/08/07 09:10:43;;;;;;;57.35;54.55;;;;;;;24.73;36.51;102471.50;4879017;29;20080;-71
2022/08/07 09:13:31;;;;;;;57.78;54.90;;;;;;;24.87;36.33;102471.56;4879610;29;20088;-69
2022/08/07 09:16:30;;;;;;;55.05;52.35;;;;;;;24.98;36.72;102464.78;4879731;29;20033;-70
2022/08/07 09:19:09;;;;;;;59.95;56.72;;;;;;;25.09;36.39;102470.97;4879431;29;20036;-71
2022/08/07 09:21:58;;;;;;;59.38;56.38;;;;;;;25.21;36.08;102468.63;4883388;29;20084;-70
2022/08/07 09:24:38;;;;;;;59.30;56.20;;;;;;;25.31;36.15;102470.41;4871852;29;20072;-71
2022/08/07 09:27:33;;;;;;;60.50;57.50;;;;;;;25.41;35.97;102470.22;4883009;29;20040;-71
2022/08/07 09:30:09;;;;;;;61.10;57.90;;;;;;;25.51;35.76;102470.06;4883099;29;20074;-71
2022/08/07 09:33:02;;;;;;;60.05;57.15;;;;;;;25.62;35.75;102456.88;4883439;29;20029;-70
2022/08/07 09:35:50;;;;;;;59.92;56.92;;;;;;;25.74;35.39;102459.16;4896961;29;20036;-70
2022/08/07 09:38:32;;;;;;;62.65;59.65;;;;;;;25.84;35.71;102465.31;4897528;29;20427;-71
2022/08/07 09:41:15;;;;;;;63.60;60.40;;;;;;;25.94;35.43;102461.56;4897426;29;20033;-70
2022/08/07 09:43:55;;;;;;;62.05;59.05;;;;;;;26.04;35.25;102461.38;4882578;29;20040;-70
2022/08/07 09:46:42;;;;;;;64.25;60.90;;;;;;;26.17;35.36;102458.94;4897208;29;20037;-71
2022/08/07 09:49:27;;;;;;;65.35;62.33;;;;;;;26.28;34.84;102457.59;4896771;29;20045;-69
2022/08/07 09:51:58;;;;;;;64.93;61.78;;;;;;;26.36;35.14;102442.19;4882836;29;20032;-70
2022/08/07 09:54:35;;;;;;;66.10;62.90;;;;;;;26.47;34.48;102444.44;4882455;29;20070;-71
2022/08/07 09:57:51;;;;;;;72.00;68.35;;;;;;;26.59;34.54;102445.91;4882409;29;20470;-71
2022/08/07 10:00:24;;;;;;;67.40;64.20;;;;;;;26.69;33.98;102435.41;4870491;29;20482;-70
2022/08/07 10:02:55;;;;;;;67.35;64.25;;;;;;;26.80;34.06;102437.94;4882225;29;20033;-70
2022/08/07 10:06:02;;;;;;;66.97;63.70;;;;;;;26.91;34.24;102436.56;4882379;29;20047;-72
2022/08/07 10:08:54;;;;;;;68.60;65.43;;;;;;;27.00;33.76;102426.38;4874480;29;20057;-71
2022/08/07 10:11:47;;;;;;;69.43;65.75;;;;;;;27.12;33.56;102429.41;4882684;29;20112;-71
2022/08/07 10:14:15;;;;;;;68.15;64.95;;;;;;;27.21;33.97;102428.69;4882313;29;20483;-72
2022/08/07 10:16:47;;;;;;;67.75;64.43;;;;;;;27.31;33.58;102422.88;4882187;29;20439;-72
2022/08/07 10:19:37;;;;;;;70.65;67.38;;;;;;;27.41;32.86;102417.88;4882493;29;20033;-70
2022/08/07 10:22:35;;;;;;;70.82;67.43;;;;;;;27.52;33.37;102421.22;4882572;29;20028;-72
2022/08/07 10:25:14;;;;;;;74.10;70.72;;;;;;;27.61;32.91;102416.53;4882236;29;20031;-73
2022/08/07 10:28:04;;;;;;;72.88;69.57;;;;;;;27.73;32.70;102418.72;4881929;29;20119;-73
2022/08/07 10:30:47;;;;;;;72.28;68.93;;;;;;;27.84;32.24;102419.28;4896514;29;20029;-70
2022/08/07 10:33:43;;;;;;;73.28;69.38;;;;;;;27.91;32.31;102411.31;4896035;29;20052;-69
2022/08/07 10:36:37;;;;;;;72.22;68.63;;;;;;;28.00;32.50;102412.16;4896455;29;20065;-73
2022/08/07 10:39:23;;;;;;;73.47;69.78;;;;;;;28.08;32.11;102405.00;4882251;29;20036;-70
2022/08/07 10:42:03;;;;;;;74.75;71.38;;;;;;;28.16;32.52;102409.75;4896107;29;20064;-70
2022/08/07 10:44:47;;;;;;;74.47;70.88;;;;;;;28.23;32.05;102400.97;4896569;29;20379;-71
2022/08/07 10:47:23;;;;;;;75.53;71.68;;;;;;;28.30;31.88;102404.09;4882101;29;20518;-69
2022/08/07 10:49:57;;;;;;;81.13;77.30;;;;;;;28.39;31.89;102395.75;4882042;29;20036;-69
2022/08/07 10:53:04;;;;;;;74.03;70.63;;;;;;;28.45;32.82;102406.44;4895825;29;20040;-69
2022/08/07 10:55:41;;;;;;;74.53;71.03;;;;;;;28.53;32.06;102404.00;4873982;29;20107;-69
2022/08/07 10:58:43;;;;;;;71.68;68.38;;;;;;;28.60;31.40;102398.75;4881290;29;20119;-70
2022/08/07 11:01:46;;;;;;;76.00;72.40;;;;;;;28.65;31.06;102393.88;4880344;29;20029;-71
2022/08/07 11:04:37;;;;;;;76.28;72.70;;;;;;;28.72;30.78;102398.91;4882172;29;20124;-70
2022/08/07 11:07:06;;;;;;;74.75;71.35;;;;;;;28.79;30.90;102390.09;4881268;29;20048;-71
2022/08/07 11:09:46;;;;;;;78.45;74.72;;;;;;;28.84;30.00;102381.59;4895503;29;20471;-71
2022/08/07 11:12:24;;;;;;;76.80;73.18;;;;;;;28.89;30.29;102376.66;4881208;29;20029;-72
2022/08/07 11:15:02;;;;;;;83.20;79.40;;;;;;;28.94;30.81;102372.09;4881384;29;20029;-71
2022/08/07 11:18:18;;;;;;;76.63;73.03;;;;;;;28.99;30.29;102372.75;4895768;29;20037;-70
2022/08/07 11:21:05;;;;;;;76.18;72.78;;;;;;;29.02;30.69;102363.72;4860474;29;20037;-71
2022/08/07 11:23:56;;;;;;;78.45;74.65;;;;;;;29.06;31.13;102363.94;4880233;29;20092;-71
2022/08/07 11:26:31;;;;;;;79.47;75.88;;;;;;;29.09;31.26;102354.91;4895413;29;20037;-70
2022/08/07 11:29:08;;;;;;;78.38;74.78;;;;;;;29.13;30.81;102355.88;4880489;29;20041;-70
2022/08/07 11:31:59;;;;;;;82.35;78.55;;;;;;;29.17;30.43;102351.28;4880983;29;20033;-70
2022/08/07 11:34:56;;;;;;;77.85;74.22;;;;;;;29.22;30.78;102359.47;4880055;29;20382;-72
2022/08/07 11:37:34;;;;;;;79.25;75.60;;;;;;;29.24;30.67;102348.00;4895188;29;20048;-75